Time;durP1;ratioP1;P1;durP2;ratioP2;P2;SDS_P1;SDS_P2;PMS_P1;PMS_P2;Temp;Humidity;BMP_temperature;BMP_pressure;BME280_temperature;BME280_humidity;BME280_pressure;Samples;Min_cycle;Max_cycle;Signal;HPM_P1;HPM_P2
2023/01/24 00:02:56;;;;;;;82.00;33.20;;;;;;;1.78;100.00;102923.90;104983;1265;95803;-74
2023/01/24 00:05:45;;;;;;;78.50;34.80;;;;;;;1.79;100.00;102927.40;105125;1265;98683;-75
2023/01/24 00:08:31;;;;;;;85.90;36.00;;;;;;;1.79;100.00;102923.50;105009;1264;100393;-74
2023/01/24 00:11:16;;;;;;;91.80;36.20;;;;;;;1.79;100.00;102929.16;105075;1266;97826;-74
2023/01/24 00:14:01;;;;;;;85.60;35.20;;;;;;;1.78;100.00;102931.80;105121;1264;95803;-74
2023/01/24 00:16:47;;;;;;;86.90;35.10;;;;;;;1.81;100.00;102929.05;105067;1265;95880;-74
2023/01/24 00:19:34;;;;;;;81.10;35.10;;;;;;;1.82;100.00;102926.38;105155;1263;99991;-74
2023/01/24 00:22:19;;;;;;;90.20;35.50;;;;;;;1.82;100.00;102925.13;105140;1272;99734;-75
2023/01/24 00:25:05;;;;;;;88.90;37.70;;;;;;;1.84;100.00;102920.47;105010;1260;98697;-74
2023/01/24 00:27:51;;;;;;;81.20;35.10;;;;;;;1.86;100.00;102918.94;105414;1262;95908;-73
2023/01/24 00:30:36;;;;;;;86.80;35.50;;;;;;;1.89;100.00;102919.33;105278;1259;95887;-76
2023/01/24 00:33:22;;;;;;;79.70;33.30;;;;;;;1.89;100.00;102923.89;105258;1262;99942;-74
2023/01/24 00:36:08;;;;;;;81.60;34.40;;;;;;;1.88;100.00;102920.26;105238;1258;99124;-74
2023/01/24 00:38:54;;;;;;;84.40;36.80;;;;;;;1.86;100.00;102918.42;105281;1260;98983;-74
2023/01/24 00:41:39;;;;;;;88.80;37.20;;;;;;;1.84;100.00;102917.97;105232;1269;97849;-74
2023/01/24 00:44:26;;;;;;;92.00;35.20;;;;;;;1.85;100.00;102919.35;105486;1263;97132;-74
2023/01/24 00:47:11;;;;;;;80.50;34.40;;;;;;;1.85;100.00;102921.81;105371;1263;102389;-73
2023/01/24 00:49:57;;;;;;;84.70;35.90;;;;;;;1.84;100.00;102925.58;105392;1257;99657;-73
2023/01/24 00:52:43;;;;;;;85.20;35.70;;;;;;;1.83;100.00;102929.30;105539;1260;98941;-74
2023/01/24 00:55:31;;;;;;;87.20;34.20;;;;;;;1.86;100.00;102927.58;105307;1260;97877;-74
2023/01/24 00:58:16;;;;;;;84.20;34.70;;;;;;;1.88;100.00;102926.58;105093;1258;97197;-74
2023/01/24 01:01:02;;;;;;;86.20;35.60;;;;;;;1.90;100.00;102924.04;105152;1258;102270;-75
2023/01/24 01:03:47;;;;;;;89.30;34.80;;;;;;;1.89;100.00;102925.30;105167;1267;99852;-75
2023/01/24 01:06:33;;;;;;;81.70;35.50;;;;;;;1.89;100.00;102921.80;105229;1260;98957;-75
2023/01/24 01:09:18;;;;;;;92.00;35.90;;;;;;;1.90;100.00;102925.23;105262;1270;96637;-73
2023/01/24 01:12:04;;;;;;;86.40;36.30;;;;;;;1.90;100.00;102924.91;105272;1274;97106;-76
2023/01/24 01:14:49;;;;;;;82.60;35.20;;;;;;;1.89;100.00;102928.13;105359;1257;99930;-76
2023/01/24 01:17:35;;;;;;;85.70;35.70;;;;;;;1.87;100.00;102925.91;105385;1261;99700;-76
2023/01/24 01:20:20;;;;;;;84.90;34.30;;;;;;;1.87;100.00;102927.18;105202;1260;97703;-76
2023/01/24 01:23:06;;;;;;;83.70;35.30;;;;;;;1.88;100.00;102921.48;105178;1260;97912;-76
2023/01/24 01:25:52;;;;;;;90.00;37.30;;;;;;;1.88;100.00;102919.35;105066;1261;98272;-75
2023/01/24 01:28:37;;;;;;;81.80;35.70;;;;;;;1.88;100.00;102920.41;105172;1260;100716;-75
2023/01/24 01:31:23;;;;;;;84.90;34.40;;;;;;;1.89;100.00;102919.69;105143;1262;99876;-74
2023/01/24 01:34:10;;;;;;;81.80;36.50;;;;;;;1.89;100.00;102919.34;105292;1271;99207;-74
2023/01/24 01:36:56;;;;;;;79.90;34.10;;;;;;;1.88;100.00;102916.20;105110;1257;96708;-74
2023/01/24 01:39:41;;;;;;;87.30;35.80;;;;;;;1.88;100.00;102914.61;105274;1257;96628;-74
2023/01/24 01:42:45;;;;;;;76.90;34.50;;;;;;;1.87;100.00;102910.46;105162;1267;101231;-74
2023/01/24 01:45:52;;;;;;;90.20;38.20;;;;;;;1.86;100.00;102910.83;105503;1257;99434;-74
2023/01/24 01:48:42;;;;;;;89.60;38.00;;;;;;;1.89;100.00;102912.98;105213;1264;97875;-76
2023/01/24 01:51:37;;;;;;;88.40;36.10;;;;;;;1.90;100.00;102913.63;105186;1260;96624;-75
2023/01/24 01:54:29;;;;;;;84.40;35.70;;;;;;;1.90;100.00;102914.17;105181;1260;98174;-75
2023/01/24 01:57:21;;;;;;;82.10;35.70;;;;;;;1.89;100.00;102912.09;105104;1258;99975;-75
2023/01/24 02:00:15;;;;;;;82.00;36.80;;;;;;;1.89;100.00;102907.67;105131;1261;101509;-75
2023/01/24 02:06:29;;;;;;;78.00;35.80;;;;;;;1.93;100.00;102896.58;105130;1260;96721;-76
2023/01/24 02:09:20;;;;;;;92.60;35.40;;;;;;;1.96;100.00;102901.52;105215;1257;97161;-75
2023/01/24 02:12:12;;;;;;;79.40;33.80;;;;;;;1.97;100.00;102900.08;105388;1263;100055;-75
2023/01/24 02:18:10;;;;;;;;;;;;;;;1.99;100.00;102900.88;105254;1261;97848;-74
2023/01/24 02:20:56;;;;;;;85.90;34.60;;;;;;;1.96;100.00;102898.35;105536;1257;98057;-74
2023/01/24 02:24:08;;;;;;;88.70;35.90;;;;;;;1.96;100.00;102899.95;105587;1257;96605;-76
2023/01/24 02:26:54;;;;;;;83.70;36.70;;;;;;;1.94;100.00;102900.23;105206;1261;101227;-75
2023/01/24 02:29:39;;;;;;;87.30;36.90;;;;;;;1.93;100.00;102900.27;105086;1260;99896;-74
2023/01/24 02:32:25;;;;;;;81.80;34.70;;;;;;;1.92;100.00;102898.05;105108;1257;97934;-75
2023/01/24 02:35:29;;;;;;;91.00;36.80;;;;;;;1.90;100.00;102895.84;105123;1264;96718;-74
2023/01/24 02:38:28;;;;;;;78.80;33.20;;;;;;;1.91;100.00;102899.84;105445;1257;97099;-75
2023/01/24 02:41:19;;;;;;;88.50;37.00;;;;;;;1.92;100.00;102894.67;105137;1257;100012;-74
2023/01/24 02:44:11;;;;;;;79.30;34.40;;;;;;;1.92;100.00;102893.42;105051;1264;101531;-74
2023/01/24 02:46:57;;;;;;;81.30;33.60;;;;;;;1.92;100.00;102892.59;105137;1261;99023;-74
2023/01/24 02:49:43;;;;;;;83.20;36.60;;;;;;;1.91;100.00;102892.45;105194;1257;96607;-75
2023/01/24 02:55:33;;;;;;;85.20;35.20;;;;;;;1.89;100.00;102895.36;105618;1264;101241;-76
2023/01/24 02:58:19;;;;;;;72.50;33.20;;;;;;;1.89;100.00;102899.08;105104;1268;100519;-75
2023/01/24 03:01:04;;;;;;;84.90;35.90;;;;;;;1.86;100.00;102898.50;105138;1260;98984;-75
2023/01/24 03:03:52;;;;;;;79.30;33.90;;;;;;;1.85;100.00;102898.36;105205;1261;98223;-75
2023/01/24 03:06:38;;;;;;;84.60;36.10;;;;;;;1.83;100.00;102897.75;105028;1257;97040;-75
2023/01/24 03:09:38;;;;;;;75.20;34.00;;;;;;;1.82;100.00;102898.33;105097;1260;100920;-75
2023/01/24 03:37:01;;;;;;;87.40;35.90;;;;;;;1.79;100.00;102909.22;105207;1257;97165;-73
2023/01/24 03:39:53;;;;;;;79.90;33.80;;;;;;;1.82;100.00;102908.91;105091;1274;99978;-75
2023/01/24 03:42:47;;;;;;;83.10;34.90;;;;;;;1.84;100.00;102904.25;105180;1262;99116;-74
2023/01/24 03:45:36;;;;;;;85.50;35.50;;;;;;;1.82;100.00;102902.56;104961;1257;98935;-74
2023/01/24 03:48:26;;;;;;;81.90;33.70;;;;;;;1.82;100.00;102903.82;105073;1257;96671;-75
2023/01/24 03:54:16;;;;;;;74.10;33.70;;;;;;;1.83;100.00;102911.88;105244;1260;101243;-74
2023/01/24 03:57:15;;;;;;;76.90;35.10;;;;;;;1.84;100.00;102910.42;105254;1260;99431;-75
2023/01/24 04:00:01;;;;;;;75.20;34.10;;;;;;;1.83;100.00;102913.63;105094;1257;97685;-75
2023/01/24 04:02:46;;;;;;;81.40;33.80;;;;;;;1.81;100.00;102916.70;105201;1257;96628;-75
2023/01/24 04:05:34;;;;;;;80.60;36.80;;;;;;;1.80;100.00;102919.23;105209;1263;97249;-75
2023/01/24 04:08:21;;;;;;;77.00;34.30;;;;;;;1.80;100.00;102914.48;105520;1257;100161;-74
2023/01/24 04:11:06;;;;;;;85.00;35.80;;;;;;;1.80;100.00;102910.79;105166;1258;99107;-73
2023/01/24 04:13:52;;;;;;;84.00;34.70;;;;;;;1.79;100.00;102911.89;105158;1260;99367;-74
2023/01/24 04:16:38;;;;;;;88.90;37.40;;;;;;;1.78;100.00;102918.44;105172;1257;96632;-74
2023/01/24 04:19:46;;;;;;;72.30;32.70;;;;;;;1.77;100.00;102917.09;105306;1258;97068;-75
2023/01/24 04:22:32;;;;;;;74.70;32.90;;;;;;;1.78;100.00;102912.45;105093;1264;100742;-74
2023/01/24 04:25:19;;;;;;;69.90;35.60;;;;;;;1.78;100.00;102919.69;105135;1256;99222;-75
2023/01/24 04:28:06;;;;;;;77.00;33.70;;;;;;;1.78;100.00;102920.05;105495;1260;98747;-74
2023/01/24 04:31:01;;;;;;;78.60;35.70;;;;;;;1.79;100.00;102918.59;105233;1260;96804;-75
2023/01/24 04:34:05;;;;;;;85.10;35.30;;;;;;;1.80;100.00;102917.99;105353;1257;97098;-76
2023/01/24 04:36:51;;;;;;;71.40;30.90;;;;;;;1.81;100.00;102920.79;105243;1260;100017;-76
2023/01/24 04:39:37;;;;;;;76.60;35.90;;;;;;;1.80;100.00;102920.83;105120;1258;99066;-75
2023/01/24 04:42:30;;;;;;;70.50;33.40;;;;;;;1.78;100.00;102921.45;105134;1271;98938;-75
2023/01/24 04:45:16;;;;;;;81.10;34.10;;;;;;;1.77;100.00;102924.14;105226;1260;97093;-77
2023/01/24 04:48:03;;;;;;;80.40;34.30;;;;;;;1.77;100.00;102924.52;105213;1257;97141;-76
2023/01/24 04:50:50;;;;;;;79.90;32.40;;;;;;;1.77;100.00;102923.28;105247;1256;101235;-73
2023/01/24 04:53:40;;;;;;;80.00;37.40;;;;;;;1.77;100.00;102924.15;105284;1258;99080;-73
2023/01/24 04:56:26;;;;;;;78.10;34.40;;;;;;;1.78;100.00;102928.83;105879;1258;97711;-73
2023/01/24 04:59:13;;;;;;;76.20;34.30;;;;;;;1.78;100.00;102929.56;105301;1257;97756;-73
2023/01/24 05:01:59;;;;;;;77.90;35.00;;;;;;;1.77;100.00;102928.02;105356;1264;96527;-75
2023/01/24 05:05:06;;;;;;;81.10;35.80;;;;;;;1.77;100.00;102925.05;105378;1260;99975;-76
2023/01/24 05:07:52;;;;;;;76.20;34.70;;;;;;;1.77;100.00;102925.05;105185;1260;100377;-76
2023/01/24 05:10:38;;;;;;;83.70;37.50;;;;;;;1.76;100.00;102928.25;105142;1257;99494;-75
2023/01/24 05:13:24;;;;;;;83.30;35.30;;;;;;;1.76;100.00;102926.33;105143;1260;96602;-74
2023/01/24 05:16:10;;;;;;;82.60;35.20;;;;;;;1.77;100.00;102928.57;105139;1263;97150;-75
2023/01/24 05:18:56;;;;;;;81.80;33.90;;;;;;;1.77;100.00;102926.41;105266;1257;100745;-75
2023/01/24 05:21:41;;;;;;;87.10;37.50;;;;;;;1.77;100.00;102928.54;105213;1258;99120;-74
2023/01/24 05:24:27;;;;;;;78.40;33.80;;;;;;;1.78;100.00;102928.85;105151;1264;99877;-74
2023/01/24 05:27:12;;;;;;;78.70;35.40;;;;;;;1.77;100.00;102931.17;105117;1260;96533;-73
2023/01/24 05:30:01;;;;;;;84.70;36.10;;;;;;;1.76;100.00;102932.82;105142;1257;97763;-75
2023/01/24 05:32:47;;;;;;;83.20;34.60;;;;;;;1.77;100.00;102932.63;105040;1264;101176;-74
2023/01/24 05:35:33;;;;;;;73.10;31.30;;;;;;;1.79;100.00;102930.77;105127;1260;99227;-75
2023/01/24 05:38:19;;;;;;;86.90;35.10;;;;;;;1.79;100.00;102928.98;105613;1256;97703;-76
2023/01/24 05:41:09;;;;;;;80.20;35.40;;;;;;;1.78;100.00;102930.61;105289;1262;96542;-73
2023/01/24 05:43:54;;;;;;;76.30;35.10;;;;;;;1.77;100.00;102933.31;105303;1260;96610;-74
2023/01/24 05:46:43;;;;;;;82.50;35.70;;;;;;;1.77;100.00;102937.72;105579;1260;101269;-75
2023/01/24 05:49:35;;;;;;;76.10;34.00;;;;;;;1.78;100.00;102937.46;107857;1256;100318;-74
2023/01/24 05:52:21;;;;;;;79.20;34.60;;;;;;;1.80;100.00;102935.98;105341;1257;98985;-74
2023/01/24 05:55:09;;;;;;;77.60;36.80;;;;;;;1.82;100.00;102940.80;105052;1258;97161;-74
2023/01/24 05:58:00;;;;;;;82.60;34.50;;;;;;;1.86;100.00;102943.81;105044;1257;97205;-74
2023/01/24 06:00:56;;;;;;;83.60;35.30;;;;;;;1.87;100.00;102947.26;105057;1257;101156;-75
2023/01/24 06:03:51;;;;;;;84.60;37.10;;;;;;;1.87;100.00;102952.70;105029;1260;100483;-75
2023/01/24 06:06:38;;;;;;;76.70;33.40;;;;;;;1.87;100.00;102954.82;105138;1260;99753;-74
2023/01/24 06:09:23;;;;;;;78.10;34.80;;;;;;;1.88;100.00;102956.17;105269;1257;96530;-75
2023/01/24 06:12:08;;;;;;;83.10;35.90;;;;;;;1.90;100.00;102959.45;105350;1256;97785;-76
2023/01/24 06:14:54;;;;;;;80.30;35.50;;;;;;;1.91;100.00;102955.19;105112;1257;99972;-75
2023/01/24 06:17:40;;;;;;;77.70;34.90;;;;;;;1.89;100.00;102953.52;105106;1257;99015;-75
2023/01/24 06:20:26;;;;;;;85.40;35.40;;;;;;;1.87;100.00;102954.11;105119;1260;98975;-75
2023/01/24 06:23:23;;;;;;;82.80;34.90;;;;;;;1.87;100.00;102956.45;105040;1257;96712;-74
2023/01/24 06:26:12;;;;;;;72.30;34.30;;;;;;;1.87;100.00;102957.12;105184;1260;96689;-74
2023/01/24 06:28:58;;;;;;;77.90;34.60;;;;;;;1.88;100.00;102965.36;105152;1258;101303;-75
2023/01/24 06:32:14;;;;;;;76.70;34.10;;;;;;;1.88;100.00;102970.79;105200;1257;99256;-75
2023/01/24 06:35:07;;;;;;;76.10;33.10;;;;;;;1.89;100.00;102971.45;105095;1261;98366;-75
2023/01/24 06:37:53;;;;;;;73.80;34.30;;;;;;;1.91;100.00;102974.56;105235;1260;96536;-74
2023/01/24 06:40:38;;;;;;;77.20;33.90;;;;;;;1.92;100.00;102980.15;105239;1262;96604;-74
2023/01/24 06:43:24;;;;;;;75.80;34.60;;;;;;;1.89;100.00;102982.02;105222;1260;100029;-75
2023/01/24 06:46:11;;;;;;;71.50;33.70;;;;;;;1.89;100.00;102983.10;105242;1260;99247;-74
2023/01/24 06:48:56;;;;;;;79.60;34.40;;;;;;;1.91;100.00;102982.67;105401;1260;97813;-75
2023/01/24 06:51:41;;;;;;;80.70;36.70;;;;;;;1.94;100.00;102983.73;105259;1260;96628;-75
2023/01/24 06:54:27;;;;;;;84.30;37.80;;;;;;;1.97;100.00;102985.17;105151;1259;96908;-74
2023/01/24 06:57:12;;;;;;;78.60;35.20;;;;;;;1.99;100.00;102987.73;105155;1258;100062;-75
2023/01/24 06:59:58;;;;;;;84.00;33.90;;;;;;;1.99;100.00;102992.48;105150;1257;100823;-74
2023/01/24 07:02:44;;;;;;;80.10;35.00;;;;;;;1.98;100.00;102992.52;105130;1257;97904;-75
2023/01/24 07:05:29;;;;;;;76.40;35.00;;;;;;;1.98;100.00;102992.52;105052;1258;97534;-75
2023/01/24 07:08:15;;;;;;;87.90;35.80;;;;;;;1.99;100.00;102991.05;105167;1260;97075;-75
2023/01/24 07:11:00;;;;;;;83.60;36.00;;;;;;;2.00;100.00;102992.60;105230;1257;99983;-75
2023/01/24 07:13:45;;;;;;;88.80;36.80;;;;;;;2.01;100.00;102995.05;105403;1257;99352;-76
2023/01/24 07:16:31;;;;;;;74.30;34.90;;;;;;;2.01;100.00;102994.66;105256;1256;97780;-75
2023/01/24 07:19:21;;;;;;;77.20;34.00;;;;;;;2.01;100.00;102995.53;105371;1257;97875;-77
2023/01/24 07:22:11;;;;;;;83.40;36.10;;;;;;;1.99;100.00;102995.28;105339;1257;97792;-74
2023/01/24 07:24:57;;;;;;;83.50;34.80;;;;;;;1.99;100.00;102998.10;106462;1257;102738;-74
2023/01/24 07:27:43;;;;;;;82.20;35.90;;;;;;;2.02;100.00;102994.98;105506;1257;99361;-75
2023/01/24 07:30:29;;;;;;;77.80;34.80;;;;;;;2.04;100.00;102991.85;105168;1260;98949;-75
2023/01/24 07:33:15;;;;;;;85.60;38.60;;;;;;;2.09;100.00;102988.80;105127;1260;96625;-75
2023/01/24 07:36:00;;;;;;;84.20;33.90;;;;;;;2.13;100.00;102989.50;105166;1262;96610;-74
2023/01/24 07:38:45;;;;;;;76.70;35.50;;;;;;;2.14;100.00;102992.98;105182;1258;100489;-74
2023/01/24 07:41:31;;;;;;;83.90;35.90;;;;;;;2.13;100.00;102992.34;105171;1259;99202;-75
2023/01/24 07:44:20;;;;;;;82.40;36.70;;;;;;;2.14;100.00;102991.73;105163;1260;99205;-76
2023/01/24 07:47:06;;;;;;;81.20;36.30;;;;;;;2.16;100.00;102998.17;105271;1260;97174;-75
2023/01/24 07:49:52;;;;;;;81.00;34.90;;;;;;;2.16;100.00;103000.10;105643;1261;97034;-75
2023/01/24 07:52:37;;;;;;;81.40;36.50;;;;;;;2.17;100.00;103000.77;104905;1262;101223;-76
2023/01/24 07:55:23;;;;;;;74.20;33.00;;;;;;;2.17;100.00;102999.20;104866;1260;99101;-77
2023/01/24 07:58:09;;;;;;;77.50;35.30;;;;;;;2.15;100.00;102999.81;104904;1261;97716;-75
2023/01/24 08:00:54;;;;;;;81.40;37.40;;;;;;;2.14;100.00;102997.37;104838;1264;96604;-76
2023/01/24 08:03:40;;;;;;;85.70;35.50;;;;;;;2.17;100.00;102996.73;104992;1264;110752;-73
2023/01/24 08:06:25;;;;;;;80.10;34.70;;;;;;;2.18;100.00;102997.70;104897;1264;100110;-73
2023/01/24 08:09:11;;;;;;;84.70;37.90;;;;;;;2.17;100.00;102998.44;104962;1264;100729;-74
2023/01/24 08:11:56;;;;;;;74.10;31.70;;;;;;;2.18;100.00;102999.12;104965;1260;98117;-76
2023/01/24 08:14:42;;;;;;;89.70;36.80;;;;;;;2.17;100.00;103004.11;104998;1260;96596;-75
2023/01/24 08:17:27;;;;;;;82.10;34.30;;;;;;;2.18;100.00;103004.57;104938;1276;97782;-75
2023/01/24 08:20:13;;;;;;;82.20;36.30;;;;;;;2.21;100.00;103004.61;104917;1262;100958;-74
2023/01/24 08:22:59;;;;;;;82.50;34.50;;;;;;;2.22;100.00;103004.92;105173;1261;99050;-74
2023/01/24 08:25:44;;;;;;;76.40;34.60;;;;;;;2.20;100.00;103003.27;104982;1265;97958;-74
2023/01/24 08:28:31;;;;;;;82.60;35.60;;;;;;;2.17;100.00;103008.16;105039;1260;96610;-75
2023/01/24 08:31:16;;;;;;;77.50;33.90;;;;;;;2.18;100.00;103009.36;104993;1263;96901;-75
2023/01/24 08:34:02;;;;;;;72.80;34.80;;;;;;;2.20;100.00;103005.69;105037;1264;99985;-75
2023/01/24 08:36:47;;;;;;;68.20;33.20;;;;;;;2.24;100.00;103006.93;105040;1264;100130;-75
2023/01/24 08:39:33;;;;;;;73.40;31.30;;;;;;;2.25;100.00;103008.48;104948;1259;97704;-74
2023/01/24 08:42:18;;;;;;;74.50;32.70;;;;;;;2.24;100.00;103012.04;104889;1259;97194;-75
2023/01/24 08:45:04;;;;;;;76.20;35.30;;;;;;;2.22;100.00;103013.73;104910;1259;96691;-75
2023/01/24 08:47:52;;;;;;;81.70;36.90;;;;;;;2.22;100.00;103018.16;104909;1262;100759;-75
2023/01/24 08:50:37;;;;;;;67.70;31.40;;;;;;;2.22;100.00;103014.28;104908;1260;99156;-75
2023/01/24 08:53:23;;;;;;;82.00;33.70;;;;;;;2.21;100.00;103013.60;105000;1259;98964;-75
2023/01/24 08:56:08;;;;;;;77.30;33.50;;;;;;;2.19;100.00;103014.73;104904;1259;96697;-76
2023/01/24 08:58:54;;;;;;;83.90;34.70;;;;;;;2.18;100.00;103018.65;105104;1263;97140;-73
2023/01/24 09:01:40;;;;;;;88.50;35.70;;;;;;;2.18;100.00;103016.23;104949;1259;100183;-73
2023/01/24 09:04:28;;;;;;;76.50;32.40;;;;;;;2.19;100.00;103015.83;104943;1260;99066;-75
2023/01/24 09:07:13;;;;;;;69.70;30.70;;;;;;;2.20;100.00;103012.27;104959;1264;98258;-74
2023/01/24 09:09:59;;;;;;;74.50;33.30;;;;;;;2.22;100.00;103011.09;104953;1264;96512;-75
2023/01/24 09:12:44;;;;;;;73.80;32.60;;;;;;;2.25;100.00;103010.03;104913;1260;96614;-74
2023/01/24 09:15:31;;;;;;;80.90;37.50;;;;;;;2.28;100.00;103010.06;104906;1259;100107;-75
2023/01/24 09:18:17;;;;;;;75.70;33.90;;;;;;;2.31;100.00;103004.46;105047;1264;100301;-75
2023/01/24 09:21:03;;;;;;;71.60;32.40;;;;;;;2.33;100.00;103000.30;104934;1267;98738;-74
2023/01/24 09:23:48;;;;;;;73.60;33.30;;;;;;;2.35;100.00;103002.16;104986;1264;97916;-75
2023/01/24 09:26:34;;;;;;;75.70;33.50;;;;;;;2.34;100.00;103006.09;105052;1264;98454;-75
2023/01/24 09:29:19;;;;;;;65.10;32.10;;;;;;;2.34;100.00;103007.15;105209;1260;99966;-76
2023/01/24 09:32:05;;;;;;;73.60;32.40;;;;;;;2.33;100.00;103004.54;104961;1261;99540;-75
2023/01/24 09:34:51;;;;;;;69.80;32.50;;;;;;;2.33;100.00;103004.20;104942;1261;99081;-74
2023/01/24 09:37:37;;;;;;;73.60;33.10;;;;;;;2.34;100.00;103004.12;104895;1259;96608;-74
2023/01/24 09:40:26;;;;;;;75.70;33.90;;;;;;;2.37;100.00;103005.77;104984;1265;97141;-73
2023/01/24 09:43:21;;;;;;;74.80;32.60;;;;;;;2.38;100.00;103004.66;105107;1260;101272;-74
2023/01/24 09:46:26;;;;;;;62.50;29.20;;;;;;;2.38;100.00;103003.41;105103;1264;99200;-75
2023/01/24 09:49:40;;;;;;;76.30;34.70;;;;;;;2.36;100.00;103009.66;105011;1264;97808;-75
2023/01/24 09:52:41;;;;;;;86.10;35.30;;;;;;;2.37;100.00;103009.48;105010;1262;96614;-74
2023/01/24 09:55:41;;;;;;;79.70;35.40;;;;;;;2.38;100.00;103010.30;104990;1260;97948;-75
2023/01/24 09:58:32;;;;;;;81.90;36.90;;;;;;;2.41;100.00;103011.92;105586;1259;100840;-75
2023/01/24 10:01:17;;;;;;;85.10;38.30;;;;;;;2.42;100.00;103016.80;106043;1263;100473;-76
2023/01/24 10:04:03;;;;;;;78.10;37.10;;;;;;;2.41;100.00;103020.92;105055;1262;97715;-75
2023/01/24 10:07:11;;;;;;;93.80;37.50;;;;;;;2.42;100.00;103021.05;104872;1260;96604;-75
2023/01/24 10:10:08;;;;;;;73.10;31.90;;;;;;;2.44;100.00;103024.66;104994;1259;96514;-74
2023/01/24 10:13:09;;;;;;;75.90;34.50;;;;;;;2.43;100.00;103021.37;104997;1263;100074;-74
2023/01/24 10:16:18;;;;;;;88.70;38.90;;;;;;;2.41;100.00;103020.20;104908;1263;99083;-75
2023/01/24 10:19:19;;;;;;;79.40;34.90;;;;;;;2.41;100.00;103018.26;104962;1264;97705;-75
2023/01/24 10:22:19;;;;;;;87.20;38.50;;;;;;;2.42;100.00;103013.98;105066;1264;96617;-75
2023/01/24 10:25:16;;;;;;;83.80;35.30;;;;;;;2.44;100.00;103010.18;105084;1262;96695;-74
2023/01/24 10:28:02;;;;;;;78.00;34.60;;;;;;;2.46;100.00;103013.98;105111;1259;100834;-75
2023/01/24 10:31:22;;;;;;;73.70;34.10;;;;;;;2.45;100.00;103014.52;107792;1260;100153;-74
2023/01/24 10:34:33;;;;;;;81.80;35.40;;;;;;;2.44;100.00;103011.41;105039;1263;97452;-74
2023/01/24 10:37:24;;;;;;;77.70;33.00;;;;;;;2.45;100.00;103008.56;104941;1259;96606;-75
2023/01/24 10:40:16;;;;;;;74.00;33.30;;;;;;;2.47;100.00;103013.40;105076;1259;96505;-75
2023/01/24 10:43:06;;;;;;;75.20;33.90;;;;;;;2.46;100.00;103008.16;104939;1263;102204;-74
2023/01/24 10:46:06;;;;;;;70.20;34.40;;;;;;;2.46;100.00;103004.98;105007;1259;100881;-74
2023/01/24 10:48:55;;;;;;;75.40;34.10;;;;;;;2.49;100.00;103006.20;104960;1260;100444;-74
2023/01/24 10:51:40;;;;;;;68.20;33.60;;;;;;;2.51;100.00;103005.06;105089;1259;96706;-75
2023/01/24 10:54:25;;;;;;;71.10;31.70;;;;;;;2.52;100.00;103004.49;105125;1259;96522;-75
2023/01/24 10:57:33;;;;;;;73.10;34.40;;;;;;;2.53;100.00;102998.10;104989;1259;101234;-75
2023/01/24 11:00:22;;;;;;;75.50;32.80;;;;;;;2.55;100.00;102998.88;105119;1259;99192;-74
2023/01/24 11:03:21;;;;;;;71.80;31.00;;;;;;;2.58;100.00;103003.66;105061;1259;98678;-75
2023/01/24 11:06:22;;;;;;;73.10;33.50;;;;;;;2.60;100.00;103002.65;105132;1267;95981;-77
2023/01/24 11:09:12;;;;;;;67.40;33.00;;;;;;;2.62;100.00;103006.25;105143;1263;96805;-74
2023/01/24 11:11:59;;;;;;;72.70;33.10;;;;;;;2.61;100.00;103003.69;105006;1260;100556;-75
2023/01/24 11:14:48;;;;;;;69.00;32.40;;;;;;;2.62;100.00;102999.23;104883;1264;100368;-75
2023/01/24 11:17:36;;;;;;;54.50;27.20;;;;;;;2.62;100.00;102994.61;105498;1264;98583;-73
2023/01/24 11:20:33;;;;;;;58.50;28.10;;;;;;;2.64;100.00;102992.20;104990;1262;97125;-75
2023/01/24 11:23:24;;;;;;;51.30;25.90;;;;;;;2.64;100.00;102993.45;104827;1264;98416;-74
2023/01/24 11:26:28;;;;;;;56.00;27.90;;;;;;;2.62;100.00;102993.92;105092;1259;101189;-74
2023/01/24 11:29:17;;;;;;;54.40;26.50;;;;;;;2.60;100.00;102986.79;104929;1264;100357;-75
2023/01/24 11:32:25;;;;;;;54.10;25.60;;;;;;;2.61;100.00;102980.41;105015;1259;97856;-76
2023/01/24 11:35:34;;;;;;;54.60;25.80;;;;;;;2.63;100.00;102984.52;105030;1259;96889;-76
2023/01/24 11:38:25;;;;;;;53.40;27.50;;;;;;;2.62;100.00;102980.68;105085;1264;97062;-75
2023/01/24 11:41:24;;;;;;;52.00;27.60;;;;;;;2.62;100.00;102976.26;104953;1264;101757;-75
2023/01/24 11:44:49;;;;;;;54.50;27.60;;;;;;;2.64;100.00;102975.81;105051;1260;100303;-75
2023/01/24 11:47:45;;;;;;;53.60;26.70;;;;;;;2.65;100.00;102977.52;104925;1268;98753;-74
2023/01/24 11:50:43;;;;;;;53.90;25.60;;;;;;;2.66;100.00;102979.59;105011;1260;96631;-75
2023/01/24 11:54:00;;;;;;;57.20;28.50;;;;;;;2.67;100.00;102978.33;105024;1259;97151;-75
2023/01/24 11:56:52;;;;;;;56.50;26.90;;;;;;;2.68;100.00;102975.98;104943;1264;102233;-75
2023/01/24 12:00:03;;;;;;;51.60;25.20;;;;;;;2.69;100.00;102975.73;105008;1260;99073;-74
2023/01/24 12:03:20;;;;;;;59.70;28.50;;;;;;;2.70;100.00;102970.75;104964;1261;97877;-74
2023/01/24 12:06:21;;;;;;;54.20;27.50;;;;;;;2.71;100.00;102966.29;105071;1262;96832;-75
2023/01/24 12:09:15;;;;;;;53.20;27.30;;;;;;;2.73;100.00;102957.35;105123;1260;96607;-75
2023/01/24 12:12:21;;;;;;;51.60;26.90;;;;;;;2.77;100.00;102951.88;104978;1259;100271;-74
2023/01/24 12:15:46;;;;;;;55.50;28.30;;;;;;;2.79;100.00;102956.71;104998;1264;99895;-74
2023/01/24 12:18:48;;;;;;;50.40;26.80;;;;;;;2.79;100.00;102949.27;104897;1263;97819;-74
2023/01/24 12:21:34;;;;;;;56.30;28.90;;;;;;;2.81;100.00;102948.27;105056;1264;97912;-75
2023/01/24 12:24:26;;;;;;;59.60;30.00;;;;;;;2.84;100.00;102945.83;104948;1259;97891;-74
2023/01/24 12:27:19;;;;;;;59.60;29.50;;;;;;;2.89;100.00;102944.15;104973;1264;101237;-74
2023/01/24 12:30:08;;;;;;;56.80;28.00;;;;;;;2.93;100.00;102938.98;104967;1261;100409;-75
2023/01/24 12:33:08;;;;;;;58.40;29.50;;;;;;;2.95;100.00;102928.83;104945;1264;97844;-75
2023/01/24 12:35:58;;;;;;;57.50;27.70;;;;;;;2.96;100.00;102930.91;105399;1263;96616;-74
2023/01/24 12:38:46;;;;;;;54.10;28.60;;;;;;;2.94;100.00;102931.54;104924;1259;96739;-76
2023/01/24 12:41:35;;;;;;;54.80;28.20;;;;;;;2.91;100.00;102933.11;104913;1264;100212;-75
2023/01/24 12:44:26;;;;;;;58.40;29.80;;;;;;;2.89;100.00;102935.17;104901;1264;99840;-73
2023/01/24 12:47:37;;;;;;;57.90;27.60;;;;;;;2.87;100.00;102938.63;105015;1259;97721;-75
2023/01/24 12:50:48;;;;;;;52.80;27.10;;;;;;;2.85;100.00;102932.04;104926;1259;97974;-75
2023/01/24 12:53:47;;;;;;;54.50;28.90;;;;;;;2.87;100.00;102925.92;105531;1264;97982;-74
2023/01/24 12:56:44;;;;;;;52.90;28.20;;;;;;;2.90;100.00;102922.92;106952;1259;100783;-74
2023/01/24 12:59:33;;;;;;;54.90;27.70;;;;;;;2.91;100.00;102923.23;104956;1264;99162;-74
2023/01/24 13:02:42;;;;;;;61.70;29.00;;;;;;;2.92;100.00;102925.30;104799;1262;97842;-75
2023/01/24 13:05:55;;;;;;;58.90;29.20;;;;;;;2.94;100.00;102924.51;104896;1264;96652;-75
2023/01/24 13:09:15;;;;;;;58.90;29.20;;;;;;;2.95;100.00;102925.63;104889;1264;97138;-75
2023/01/24 13:12:03;;;;;;;60.50;29.80;;;;;;;2.99;100.00;102931.95;105301;1265;99983;-76
2023/01/24 13:15:14;;;;;;;63.40;30.20;;;;;;;3.00;100.00;102928.58;105241;1260;99071;-74
2023/01/24 13:18:15;;;;;;;60.50;29.20;;;;;;;3.00;100.00;102931.59;105149;1262;99461;-75
2023/01/24 13:21:17;;;;;;;58.70;28.30;;;;;;;2.99;100.00;102934.78;104958;1260;96634;-74
2023/01/24 13:24:37;;;;;;;53.50;27.90;;;;;;;2.97;100.00;102935.80;105012;1264;98368;-75